sensor_id;sensor_type;location;lat;lon;timestamp;P1;durP1;ratioP1;P2;durP2;ratioP2
20421;SDS011;10370;53.102;18.034;2023-04-24T00:00:31;40.03;;;24.42;;
20421;SDS011;10370;53.102;18.034;2023-04-24T00:05:56;40.30;;;24.75;;
20421;SDS011;10370;53.102;18.034;2023-04-24T00:11:22;43.42;;;24.83;;
20421;SDS011;10370;53.102;18.034;2023-04-24T00:16:47;40.40;;;23.33;;
20421;SDS011;10370;53.102;18.034;2023-04-24T00:22:12;40.53;;;23.92;;
20421;SDS011;10370;53.102;18.034;2023-04-24T00:27:36;38.60;;;22.67;;
20421;SDS011;10370;53.102;18.034;2023-04-24T00:33:01;41.13;;;23.23;;
20421;SDS011;10370;53.102;18.034;2023-04-24T00:38:27;41.78;;;24.65;;
20421;SDS011;10370;53.102;18.034;2023-04-24T00:43:55;40.28;;;24.00;;
20421;SDS011;10370;53.102;18.034;2023-04-24T00:49:19;40.38;;;23.63;;
20421;SDS011;10370;53.102;18.034;2023-04-24T00:54:43;40.20;;;23.92;;
20421;SDS011;10370;53.102;18.034;2023-04-24T01:00:07;40.75;;;23.88;;
20421;SDS011;10370;53.102;18.034;2023-04-24T01:05:34;44.92;;;26.23;;
20421;SDS011;10370;53.102;18.034;2023-04-24T01:10:57;43.92;;;25.35;;
20421;SDS011;10370;53.102;18.034;2023-04-24T01:16:25;45.00;;;25.85;;
20421;SDS011;10370;53.102;18.034;2023-04-24T01:21:51;50.42;;;28.65;;
20421;SDS011;10370;53.102;18.034;2023-04-24T01:27:17;51.35;;;27.83;;
20421;SDS011;10370;53.102;18.034;2023-04-24T01:32:40;47.92;;;28.85;;
20421;SDS011;10370;53.102;18.034;2023-04-24T01:38:07;49.55;;;28.40;;
20421;SDS011;10370;53.102;18.034;2023-04-24T01:43:30;46.05;;;28.52;;
20421;SDS011;10370;53.102;18.034;2023-04-24T01:48:56;48.50;;;28.75;;
20421;SDS011;10370;53.102;18.034;2023-04-24T01:54:22;45.97;;;28.15;;
20421;SDS011;10370;53.102;18.034;2023-04-24T01:59:47;46.63;;;28.45;;
20421;SDS011;10370;53.102;18.034;2023-04-24T02:05:13;47.55;;;28.00;;
20421;SDS011;10370;53.102;18.034;2023-04-24T02:10:36;49.33;;;29.88;;
20421;SDS011;10370;53.102;18.034;2023-04-24T02:16:07;51.15;;;29.45;;
20421;SDS011;10370;53.102;18.034;2023-04-24T02:21:33;48.85;;;28.92;;
20421;SDS011;10370;53.102;18.034;2023-04-24T02:26:58;44.03;;;27.38;;
20421;SDS011;10370;53.102;18.034;2023-04-24T02:32:25;48.38;;;28.75;;
20421;SDS011;10370;53.102;18.034;2023-04-24T02:37:50;46.17;;;27.88;;
20421;SDS011;10370;53.102;18.034;2023-04-24T02:43:15;41.40;;;27.23;;
20421;SDS011;10370;53.102;18.034;2023-04-24T02:48:39;43.70;;;27.00;;
20421;SDS011;10370;53.102;18.034;2023-04-24T02:54:02;41.28;;;25.13;;
20421;SDS011;10370;53.102;18.034;2023-04-24T02:59:26;42.67;;;24.80;;
20421;SDS011;10370;53.102;18.034;2023-04-24T03:04:51;39.78;;;24.63;;
20421;SDS011;10370;53.102;18.034;2023-04-24T03:10:19;36.58;;;23.70;;
20421;SDS011;10370;53.102;18.034;2023-04-24T03:15:45;38.38;;;24.52;;
20421;SDS011;10370;53.102;18.034;2023-04-24T03:21:07;39.33;;;25.13;;
20421;SDS011;10370;53.102;18.034;2023-04-24T03:26:32;46.40;;;25.83;;
20421;SDS011;10370;53.102;18.034;2023-04-24T03:31:58;40.50;;;25.48;;
20421;SDS011;10370;53.102;18.034;2023-04-24T03:37:23;49.50;;;26.65;;
20421;SDS011;10370;53.102;18.034;2023-04-24T03:42:48;42.80;;;26.20;;
20421;SDS011;10370;53.102;18.034;2023-04-24T03:48:12;42.22;;;26.17;;
20421;SDS011;10370;53.102;18.034;2023-04-24T03:53:37;44.20;;;27.35;;
20421;SDS011;10370;53.102;18.034;2023-04-24T03:59:06;48.17;;;26.88;;
20421;SDS011;10370;53.102;18.034;2023-04-24T04:04:31;45.45;;;26.25;;
20421;SDS011;10370;53.102;18.034;2023-04-24T04:09:55;44.08;;;27.23;;
20421;SDS011;10370;53.102;18.034;2023-04-24T04:15:16;43.35;;;26.58;;
20421;SDS011;10370;53.102;18.034;2023-04-24T04:20:42;49.80;;;28.08;;
20421;SDS011;10370;53.102;18.034;2023-04-24T04:26:05;47.38;;;27.55;;
20421;SDS011;10370;53.102;18.034;2023-04-24T04:31:33;39.78;;;24.92;;
20421;SDS011;10370;53.102;18.034;2023-04-24T04:36:59;41.92;;;25.80;;
20421;SDS011;10370;53.102;18.034;2023-04-24T04:42:24;40.03;;;24.45;;
20421;SDS011;10370;53.102;18.034;2023-04-24T04:47:49;42.08;;;23.55;;
20421;SDS011;10370;53.102;18.034;2023-04-24T04:53:14;39.45;;;23.70;;
20421;SDS011;10370;53.102;18.034;2023-04-24T04:58:38;43.40;;;26.70;;
20421;SDS011;10370;53.102;18.034;2023-04-24T05:04:02;48.17;;;28.00;;
20421;SDS011;10370;53.102;18.034;2023-04-24T05:09:23;45.50;;;28.35;;
20421;SDS011;10370;53.102;18.034;2023-04-24T05:14:47;53.50;;;32.83;;
20421;SDS011;10370;53.102;18.034;2023-04-24T05:20:12;49.65;;;28.25;;
20421;SDS011;10370;53.102;18.034;2023-04-24T05:25:39;36.95;;;23.55;;
20421;SDS011;10370;53.102;18.034;2023-04-24T05:31:04;35.20;;;19.02;;
20421;SDS011;10370;53.102;18.034;2023-04-24T05:36:28;25.75;;;17.35;;
20421;SDS011;10370;53.102;18.034;2023-04-24T05:41:51;28.00;;;17.10;;
20421;SDS011;10370;53.102;18.034;2023-04-24T05:47:17;26.05;;;16.50;;
20421;SDS011;10370;53.102;18.034;2023-04-24T05:52:40;27.10;;;17.38;;
20421;SDS011;10370;53.102;18.034;2023-04-24T05:58:07;31.05;;;18.30;;
20421;SDS011;10370;53.102;18.034;2023-04-24T06:03:31;31.30;;;19.05;;
20421;SDS011;10370;53.102;18.034;2023-04-24T06:08:55;31.95;;;18.67;;
20421;SDS011;10370;53.102;18.034;2023-04-24T06:14:17;31.38;;;19.15;;
20421;SDS011;10370;53.102;18.034;2023-04-24T06:19:40;29.67;;;18.60;;
20421;SDS011;10370;53.102;18.034;2023-04-24T06:25:08;29.33;;;18.35;;
20421;SDS011;10370;53.102;18.034;2023-04-24T06:30:36;26.67;;;16.90;;
20421;SDS011;10370;53.102;18.034;2023-04-24T06:36:00;24.65;;;16.25;;
20421;SDS011;10370;53.102;18.034;2023-04-24T06:41:26;27.27;;;16.88;;
20421;SDS011;10370;53.102;18.034;2023-04-24T06:46:50;29.80;;;18.67;;
20421;SDS011;10370;53.102;18.034;2023-04-24T06:52:15;26.02;;;17.15;;
20421;SDS011;10370;53.102;18.034;2023-04-24T06:57:38;23.23;;;15.52;;
20421;SDS011;10370;53.102;18.034;2023-04-24T07:02:59;24.15;;;15.20;;
20421;SDS011;10370;53.102;18.034;2023-04-24T07:08:23;22.98;;;14.90;;
20421;SDS011;10370;53.102;18.034;2023-04-24T07:13:45;23.52;;;14.30;;
20421;SDS011;10370;53.102;18.034;2023-04-24T07:19:09;20.98;;;13.82;;
20421;SDS011;10370;53.102;18.034;2023-04-24T07:24:30;23.63;;;14.15;;
20421;SDS011;10370;53.102;18.034;2023-04-24T07:29:56;22.75;;;14.73;;
20421;SDS011;10370;53.102;18.034;2023-04-24T07:35:20;20.67;;;13.75;;
20421;SDS011;10370;53.102;18.034;2023-04-24T07:40:43;16.67;;;12.05;;
20421;SDS011;10370;53.102;18.034;2023-04-24T07:53:09;19.45;;;11.88;;
20421;SDS011;10370;53.102;18.034;2023-04-24T07:58:33;15.68;;;11.45;;
20421;SDS011;10370;53.102;18.034;2023-04-24T08:03:58;16.95;;;10.75;;
20421;SDS011;10370;53.102;18.034;2023-04-24T08:09:21;14.05;;;10.30;;
20421;SDS011;10370;53.102;18.034;2023-04-24T08:14:49;14.35;;;10.65;;
20421;SDS011;10370;53.102;18.034;2023-04-24T08:20:10;13.30;;;9.82;;
20421;SDS011;10370;53.102;18.034;2023-04-24T08:25:36;16.75;;;9.93;;
20421;SDS011;10370;53.102;18.034;2023-04-24T08:30:57;17.55;;;10.80;;
20421;SDS011;10370;53.102;18.034;2023-04-24T08:36:19;16.75;;;10.82;;
20421;SDS011;10370;53.102;18.034;2023-04-24T08:41:41;17.88;;;10.25;;
20421;SDS011;10370;53.102;18.034;2023-04-24T08:47:06;15.05;;;10.35;;
20421;SDS011;10370;53.102;18.034;2023-04-24T08:52:29;17.80;;;11.52;;
20421;SDS011;10370;53.102;18.034;2023-04-24T08:57:54;17.13;;;10.82;;
20421;SDS011;10370;53.102;18.034;2023-04-24T09:03:16;17.38;;;11.02;;
20421;SDS011;10370;53.102;18.034;2023-04-24T09:08:38;17.92;;;11.35;;
20421;SDS011;10370;53.102;18.034;2023-04-24T09:14:04;14.80;;;10.52;;
20421;SDS011;10370;53.102;18.034;2023-04-24T09:19:26;15.57;;;10.48;;
20421;SDS011;10370;53.102;18.034;2023-04-24T09:24:59;15.35;;;10.55;;
20421;SDS011;10370;53.102;18.034;2023-04-24T09:30:26;16.10;;;10.30;;
20421;SDS011;10370;53.102;18.034;2023-04-24T09:35:49;17.08;;;10.45;;
20421;SDS011;10370;53.102;18.034;2023-04-24T09:41:20;16.15;;;9.93;;
20421;SDS011;10370;53.102;18.034;2023-04-24T09:46:42;15.25;;;10.15;;
20421;SDS011;10370;53.102;18.034;2023-04-24T09:52:08;16.10;;;10.23;;
20421;SDS011;10370;53.102;18.034;2023-04-24T09:57:32;14.70;;;10.02;;
20421;SDS011;10370;53.102;18.034;2023-04-24T10:03:02;13.80;;;10.00;;
20421;SDS011;10370;53.102;18.034;2023-04-24T10:08:25;15.10;;;10.50;;
20421;SDS011;10370;53.102;18.034;2023-04-24T10:13:47;11.93;;;9.43;;
20421;SDS011;10370;53.102;18.034;2023-04-24T10:19:09;12.75;;;9.73;;
20421;SDS011;10370;53.102;18.034;2023-04-24T10:24:31;16.67;;;9.00;;
20421;SDS011;10370;53.102;18.034;2023-04-24T10:30:00;13.93;;;9.82;;
20421;SDS011;10370;53.102;18.034;2023-04-24T10:35:27;12.48;;;8.68;;
20421;SDS011;10370;53.102;18.034;2023-04-24T10:41:07;15.30;;;9.73;;
20421;SDS011;10370;53.102;18.034;2023-04-24T10:46:37;13.43;;;9.23;;
20421;SDS011;10370;53.102;18.034;2023-04-24T10:52:02;13.63;;;9.93;;
20421;SDS011;10370;53.102;18.034;2023-04-24T10:57:29;17.80;;;10.90;;
20421;SDS011;10370;53.102;18.034;2023-04-24T11:02:50;15.65;;;11.38;;
20421;SDS011;10370;53.102;18.034;2023-04-24T11:08:29;12.82;;;9.32;;
20421;SDS011;10370;53.102;18.034;2023-04-24T11:19:21;14.45;;;9.30;;
20421;SDS011;10370;53.102;18.034;2023-04-24T11:30:08;23.27;;;9.50;;
20421;SDS011;10370;53.102;18.034;2023-04-24T11:35:30;15.57;;;10.27;;
20421;SDS011;10370;53.102;18.034;2023-04-24T11:40:58;16.67;;;11.10;;
20421;SDS011;10370;53.102;18.034;2023-04-24T11:46:29;13.65;;;9.00;;
20421;SDS011;10370;53.102;18.034;2023-04-24T11:51:57;14.07;;;9.02;;
20421;SDS011;10370;53.102;18.034;2023-04-24T11:57:24;14.32;;;7.72;;
20421;SDS011;10370;53.102;18.034;2023-04-24T12:02:48;11.88;;;8.45;;
20421;SDS011;10370;53.102;18.034;2023-04-24T12:08:26;13.15;;;7.63;;
20421;SDS011;10370;53.102;18.034;2023-04-24T12:13:51;10.23;;;8.15;;
20421;SDS011;10370;53.102;18.034;2023-04-24T12:19:21;10.45;;;7.97;;
20421;SDS011;10370;53.102;18.034;2023-04-24T12:24:55;12.00;;;7.90;;
20421;SDS011;10370;53.102;18.034;2023-04-24T12:30:28;11.45;;;8.60;;
20421;SDS011;10370;53.102;18.034;2023-04-24T12:35:51;14.90;;;9.82;;
20421;SDS011;10370;53.102;18.034;2023-04-24T12:41:18;14.55;;;9.02;;
20421;SDS011;10370;53.102;18.034;2023-04-24T12:46:43;19.27;;;12.90;;
20421;SDS011;10370;53.102;18.034;2023-04-24T12:52:08;15.32;;;11.55;;
20421;SDS011;10370;53.102;18.034;2023-04-24T12:57:33;17.23;;;12.15;;
20421;SDS011;10370;53.102;18.034;2023-04-24T13:02:55;14.18;;;11.50;;
20421;SDS011;10370;53.102;18.034;2023-04-24T13:08:20;15.32;;;10.32;;
20421;SDS011;10370;53.102;18.034;2023-04-24T13:13:45;13.88;;;10.30;;
20421;SDS011;10370;53.102;18.034;2023-04-24T13:19:14;15.38;;;10.63;;
20421;SDS011;10370;53.102;18.034;2023-04-24T13:24:39;12.30;;;9.98;;
20421;SDS011;10370;53.102;18.034;2023-04-24T13:30:05;12.90;;;9.77;;
20421;SDS011;10370;53.102;18.034;2023-04-24T13:35:32;7.88;;;6.30;;
20421;SDS011;10370;53.102;18.034;2023-04-24T13:40:57;10.30;;;8.88;;
20421;SDS011;10370;53.102;18.034;2023-04-24T13:46:22;12.98;;;10.27;;
20421;SDS011;10370;53.102;18.034;2023-04-24T13:51:48;13.02;;;10.02;;
20421;SDS011;10370;53.102;18.034;2023-04-24T13:57:09;14.90;;;11.18;;
20421;SDS011;10370;53.102;18.034;2023-04-24T14:02:32;12.55;;;9.85;;
20421;SDS011;10370;53.102;18.034;2023-04-24T14:07:56;13.18;;;10.65;;
20421;SDS011;10370;53.102;18.034;2023-04-24T14:13:22;13.02;;;9.43;;
20421;SDS011;10370;53.102;18.034;2023-04-24T14:18:47;9.52;;;8.05;;
20421;SDS011;10370;53.102;18.034;2023-04-24T14:24:09;10.02;;;7.25;;
20421;SDS011;10370;53.102;18.034;2023-04-24T14:29:34;7.43;;;6.18;;
20421;SDS011;10370;53.102;18.034;2023-04-24T14:34:57;6.90;;;6.15;;
20421;SDS011;10370;53.102;18.034;2023-04-24T14:40:24;7.18;;;6.22;;
20421;SDS011;10370;53.102;18.034;2023-04-24T14:46:11;8.88;;;6.28;;
20421;SDS011;10370;53.102;18.034;2023-04-24T14:51:37;7.63;;;6.20;;
20421;SDS011;10370;53.102;18.034;2023-04-24T14:57:03;9.55;;;5.97;;
20421;SDS011;10370;53.102;18.034;2023-04-24T15:02:28;8.15;;;6.63;;
20421;SDS011;10370;53.102;18.034;2023-04-24T15:07:54;13.00;;;8.18;;
20421;SDS011;10370;53.102;18.034;2023-04-24T15:13:19;10.07;;;8.57;;
20421;SDS011;10370;53.102;18.034;2023-04-24T15:18:44;33.97;;;20.23;;
20421;SDS011;10370;53.102;18.034;2023-04-24T15:24:12;8.90;;;7.32;;
20421;SDS011;10370;53.102;18.034;2023-04-24T15:29:39;6.93;;;4.93;;
20421;SDS011;10370;53.102;18.034;2023-04-24T15:35:04;6.05;;;4.95;;
20421;SDS011;10370;53.102;18.034;2023-04-24T15:40:31;6.57;;;4.38;;
20421;SDS011;10370;53.102;18.034;2023-04-24T15:45:57;9.65;;;4.90;;
20421;SDS011;10370;53.102;18.034;2023-04-24T15:51:23;7.63;;;4.40;;
20421;SDS011;10370;53.102;18.034;2023-04-24T15:56:49;7.25;;;4.20;;
20421;SDS011;10370;53.102;18.034;2023-04-24T16:02:12;7.70;;;5.10;;
20421;SDS011;10370;53.102;18.034;2023-04-24T16:07:40;7.53;;;4.95;;
20421;SDS011;10370;53.102;18.034;2023-04-24T16:13:04;8.70;;;5.10;;
20421;SDS011;10370;53.102;18.034;2023-04-24T16:18:25;7.50;;;5.60;;
20421;SDS011;10370;53.102;18.034;2023-04-24T16:23:50;10.23;;;5.88;;
20421;SDS011;10370;53.102;18.034;2023-04-24T16:29:17;8.07;;;6.72;;
20421;SDS011;10370;53.102;18.034;2023-04-24T16:34:43;11.15;;;7.47;;
20421;SDS011;10370;53.102;18.034;2023-04-24T16:40:10;14.18;;;9.02;;
20421;SDS011;10370;53.102;18.034;2023-04-24T16:45:38;17.10;;;6.28;;
20421;SDS011;10370;53.102;18.034;2023-04-24T16:51:05;11.10;;;5.00;;
20421;SDS011;10370;53.102;18.034;2023-04-24T16:56:30;8.98;;;3.08;;
20421;SDS011;10370;53.102;18.034;2023-04-24T17:01:55;9.90;;;3.30;;
20421;SDS011;10370;53.102;18.034;2023-04-24T17:07:20;6.18;;;3.38;;
20421;SDS011;10370;53.102;18.034;2023-04-24T17:12:42;7.10;;;3.85;;
20421;SDS011;10370;53.102;18.034;2023-04-24T17:18:07;6.40;;;4.90;;
20421;SDS011;10370;53.102;18.034;2023-04-24T17:23:34;6.82;;;5.25;;
20421;SDS011;10370;53.102;18.034;2023-04-24T17:29:00;9.93;;;6.35;;
20421;SDS011;10370;53.102;18.034;2023-04-24T17:34:23;8.00;;;6.03;;
20421;SDS011;10370;53.102;18.034;2023-04-24T17:39:48;8.43;;;6.20;;
20421;SDS011;10370;53.102;18.034;2023-04-24T17:45:13;11.05;;;7.85;;
20421;SDS011;10370;53.102;18.034;2023-04-24T17:50:41;11.23;;;7.93;;
20421;SDS011;10370;53.102;18.034;2023-04-24T17:56:07;12.93;;;8.82;;
20421;SDS011;10370;53.102;18.034;2023-04-24T18:01:28;58.08;;;11.82;;
20421;SDS011;10370;53.102;18.034;2023-04-24T18:06:53;17.00;;;10.13;;
20421;SDS011;10370;53.102;18.034;2023-04-24T18:12:20;15.02;;;10.63;;
20421;SDS011;10370;53.102;18.034;2023-04-24T18:17:44;15.60;;;11.20;;
20421;SDS011;10370;53.102;18.034;2023-04-24T18:23:10;14.80;;;10.18;;
20421;SDS011;10370;53.102;18.034;2023-04-24T18:28:32;15.45;;;10.63;;
20421;SDS011;10370;53.102;18.034;2023-04-24T18:33:54;15.63;;;10.95;;
20421;SDS011;10370;53.102;18.034;2023-04-24T18:39:15;22.73;;;16.98;;
20421;SDS011;10370;53.102;18.034;2023-04-24T18:44:36;15.32;;;10.13;;
20421;SDS011;10370;53.102;18.034;2023-04-24T18:50:02;14.07;;;9.73;;
20421;SDS011;10370;53.102;18.034;2023-04-24T18:55:30;16.60;;;11.07;;
20421;SDS011;10370;53.102;18.034;2023-04-24T19:00:54;19.33;;;12.85;;
20421;SDS011;10370;53.102;18.034;2023-04-24T19:06:21;18.25;;;12.18;;
20421;SDS011;10370;53.102;18.034;2023-04-24T19:11:47;19.08;;;12.40;;
20421;SDS011;10370;53.102;18.034;2023-04-24T19:17:14;15.48;;;11.02;;
20421;SDS011;10370;53.102;18.034;2023-04-24T19:22:43;17.33;;;11.27;;
20421;SDS011;10370;53.102;18.034;2023-04-24T19:28:07;21.73;;;13.25;;
20421;SDS011;10370;53.102;18.034;2023-04-24T19:33:28;21.08;;;13.27;;
20421;SDS011;10370;53.102;18.034;2023-04-24T19:38:49;19.60;;;13.45;;
20421;SDS011;10370;53.102;18.034;2023-04-24T19:44:16;21.30;;;13.07;;
20421;SDS011;10370;53.102;18.034;2023-04-24T19:49:41;25.45;;;13.82;;
20421;SDS011;10370;53.102;18.034;2023-04-24T19:55:08;26.50;;;13.45;;
20421;SDS011;10370;53.102;18.034;2023-04-24T20:00:33;20.27;;;12.10;;
20421;SDS011;10370;53.102;18.034;2023-04-24T20:05:58;19.27;;;11.50;;
20421;SDS011;10370;53.102;18.034;2023-04-24T20:11:22;15.20;;;9.65;;
20421;SDS011;10370;53.102;18.034;2023-04-24T20:16:45;13.13;;;9.20;;
20421;SDS011;10370;53.102;18.034;2023-04-24T20:22:07;15.77;;;10.05;;
20421;SDS011;10370;53.102;18.034;2023-04-24T20:27:32;13.55;;;9.80;;
20421;SDS011;10370;53.102;18.034;2023-04-24T20:32:57;13.32;;;9.18;;
20421;SDS011;10370;53.102;18.034;2023-04-24T20:38:20;13.85;;;9.43;;
20421;SDS011;10370;53.102;18.034;2023-04-24T20:43:44;14.05;;;9.68;;
20421;SDS011;10370;53.102;18.034;2023-04-24T20:49:05;12.57;;;8.68;;
20421;SDS011;10370;53.102;18.034;2023-04-24T20:54:27;13.00;;;7.93;;
20421;SDS011;10370;53.102;18.034;2023-04-24T20:59:52;16.83;;;9.90;;
20421;SDS011;10370;53.102;18.034;2023-04-24T21:05:21;23.15;;;13.68;;
20421;SDS011;10370;53.102;18.034;2023-04-24T21:10:46;18.67;;;10.55;;
20421;SDS011;10370;53.102;18.034;2023-04-24T21:16:14;14.02;;;8.80;;
20421;SDS011;10370;53.102;18.034;2023-04-24T21:21:36;11.50;;;7.85;;
20421;SDS011;10370;53.102;18.034;2023-04-24T21:26:59;9.15;;;6.15;;
20421;SDS011;10370;53.102;18.034;2023-04-24T21:32:23;11.05;;;6.28;;
20421;SDS011;10370;53.102;18.034;2023-04-24T21:37:44;8.35;;;6.15;;
20421;SDS011;10370;53.102;18.034;2023-04-24T21:43:07;7.63;;;6.18;;
20421;SDS011;10370;53.102;18.034;2023-04-24T21:48:31;11.18;;;7.00;;
20421;SDS011;10370;53.102;18.034;2023-04-24T21:53:58;10.07;;;6.70;;
20421;SDS011;10370;53.102;18.034;2023-04-24T21:59:26;9.35;;;6.60;;
20421;SDS011;10370;53.102;18.034;2023-04-24T22:04:50;9.57;;;6.45;;
20421;SDS011;10370;53.102;18.034;2023-04-24T22:10:15;7.38;;;5.88;;
20421;SDS011;10370;53.102;18.034;2023-04-24T22:15:37;9.68;;;5.72;;
20421;SDS011;10370;53.102;18.034;2023-04-24T22:21:02;8.38;;;5.95;;
20421;SDS011;10370;53.102;18.034;2023-04-24T22:26:27;9.00;;;6.25;;
20421;SDS011;10370;53.102;18.034;2023-04-24T22:31:52;8.23;;;6.38;;
20421;SDS011;10370;53.102;18.034;2023-04-24T22:37:18;8.45;;;5.95;;
20421;SDS011;10370;53.102;18.034;2023-04-24T22:42:41;10.45;;;6.47;;
20421;SDS011;10370;53.102;18.034;2023-04-24T22:48:06;10.52;;;6.88;;
20421;SDS011;10370;53.102;18.034;2023-04-24T22:53:33;11.13;;;6.57;;
20421;SDS011;10370;53.102;18.034;2023-04-24T22:58:58;9.13;;;7.05;;
20421;SDS011;10370;53.102;18.034;2023-04-24T23:04:22;10.93;;;7.22;;
20421;SDS011;10370;53.102;18.034;2023-04-24T23:09:47;12.05;;;7.50;;
20421;SDS011;10370;53.102;18.034;2023-04-24T23:15:12;14.48;;;7.43;;
20421;SDS011;10370;53.102;18.034;2023-04-24T23:20:38;11.35;;;7.60;;
20421;SDS011;10370;53.102;18.034;2023-04-24T23:26:03;16.52;;;11.20;;
20421;SDS011;10370;53.102;18.034;2023-04-24T23:31:28;12.85;;;8.43;;
20421;SDS011;10370;53.102;18.034;2023-04-24T23:36:53;13.93;;;8.85;;
20421;SDS011;10370;53.102;18.034;2023-04-24T23:42:18;16.23;;;9.65;;
20421;SDS011;10370;53.102;18.034;2023-04-24T23:47:39;15.48;;;10.27;;
20421;SDS011;10370;53.102;18.034;2023-04-24T23:53:04;15.82;;;9.63;;
20421;SDS011;10370;53.102;18.034;2023-04-24T23:58:28;14.10;;;9.65;;
